Flight Track Log - Related Links

Times and Time Zones

All times are in EDT time to prevent confusion due to time zone crossing. See the UPS110 flight status page for this flight to view local times or setup timezone preferences in your user account.

Time Position Orientation Groundspeed Altitude Reporting Facility
EDT Latitude Longitude Course Direction KTS MPH feet Rate Location/Type
Sat 04:33:53 AM 38.1620 -85.7420 North 28 32  Level FlightAware ADS-B
Sat 04:34:40 AM 38.1660 -85.7420 360° North 30 35 87 Level FlightAware ADS-B
Sat 04:37:00 AM 38.3828 -85.9688 318° Northwest  Level FlightAware Approximate
Sat 04:37:41 AM 38.1760 -85.7480 318° Northwest 16 18  Level FlightAware ADS-B
Sat 04:38:20 AM 38.1770 -85.7480 360° North 9 10 150 Level FlightAware ADS-B
Sat 04:39:48 AM 38.1760 -85.7480 180° South 2 2 170 Level FlightAware ADS-B
Sat 04:42:00 AM 38.3683 -85.9519 318° Northwest  Level FlightAware Approximate
Sat 04:42:10 AM 38.1750 -85.7500 318° Northwest 33 38  Level FlightAware ADS-B
Sat 04:42:55 AM 38.1780 -85.7490 15° North 45 52 923 Level FlightAware ADS-B
Sat 04:43:02 AM 38.1560 -85.7440 170° South 182 209 800 3,568 Climbing FlightAware ADS-B
Sat 04:43:32 AM 38.1310 -85.7380 169° South 194 223 2,200 2,100 Climbing FlightAware ADS-B
Sat 04:44:02 AM 38.1010 -85.7390 182° South 232 267 2,900 1,800 Climbing FlightAware ADS-B
Sat 04:44:32 AM 38.0670 -85.7420 184° South 255 293 4,000 2,538 Climbing FlightAware ADS-B
Sat 04:44:54 AM 38.0400 -85.7450 185° South 261 300 5,100 2,192 Climbing FlightAware ADS-B
Sat 04:45:24 AM 38.0130 -85.7710 217° Southwest 260 299 5,900 2,167 Climbing FlightAware ADS-B
Sat 04:46:06 AM 38.0150 -85.8320 272° West 257 296 7,700 2,500 Climbing FlightAware ADS-B
Sat 04:46:24 AM 38.0320 -85.8510 319° Northwest 264 304 8,400 2,455 Climbing FlightAware ADS-B
Sat 04:46:50 AM 38.0580 -85.8740 325° Northwest 264 304 9,500 2,057 Climbing FlightAware ADS-B
Sat 04:47:34 AM 38.1010 -85.9140 324° Northwest 286 329 10,800 1,357 Climbing FlightAware ADS-B
Sat 04:48:14 AM 38.1490 -85.9580 324° Northwest 337 388 11,400 1,214 Climbing FlightAware ADS-B
Sat 04:48:58 AM 38.2070 -86.0140 323° Northwest 382 440 12,500 2,049 Climbing FlightAware ADS-B
Sat 04:49:36 AM 38.2620 -86.0670 323° Northwest 392 451 14,200 2,775 Climbing FlightAware ADS-B
Sat 04:50:18 AM 38.3210 -86.1290 321° Northwest 402 463 16,200 2,714 Climbing FlightAware ADS-B
Sat 04:51:00 AM 38.3810 -86.1990 318° Northwest 412 474 18,000 2,512 Climbing FlightAware ADS-B
Sat 04:51:44 AM 38.4420 -86.2720 317° Northwest 422 486 19,800 2,571 Climbing FlightAware ADS-B
Sat 04:52:24 AM 38.4970 -86.3400 316° Northwest 420 483 21,600 2,483 Climbing FlightAware ADS-B
Sat 04:53:11 AM 38.5640 -86.4210 317° Northwest 425 489 23,400 2,093 Climbing FlightAware ADS-B
Sat 04:53:50 AM 38.6210 -86.4890 317° Northwest 435 501 24,600 1,778 Climbing FlightAware ADS-B
Sat 04:54:32 AM 38.6850 -86.5660 317° Northwest 446 513 25,800 1,792 Climbing FlightAware ADS-B
Sat 04:55:07 AM 38.7340 -86.6260 316° Northwest 446 513 26,900 2,581 Climbing FlightAware ADS-B
Sat 04:55:58 AM 38.8110 -86.7190 317° Northwest 425 489 29,500 2,543 Climbing FlightAware ADS-B
Sat 04:56:39 AM 38.8690 -86.7900 316° Northwest 419 482 30,800 1,786 Climbing FlightAware ADS-B
Sat 04:57:22 AM 38.9300 -86.8650 316° Northwest 418 481 32,000 1,590 Climbing FlightAware ADS-B
Sat 04:58:02 AM 38.9860 -86.9330 317° Northwest 416 479 33,000 1,244 Climbing FlightAware ADS-B
Sat 04:58:44 AM 39.0640 -87.0050 324° Northwest 422 486 33,700 706 Climbing FlightAware ADS-B
Sat 04:59:27 AM 39.1250 -87.0800 316° Northwest 432 497 34,000 220 Climbing FlightAware ADS-B
Sat 05:00:06 AM 39.1820 -87.1500 316° Northwest 435 501 34,000  Level FlightAware ADS-B
Sat 05:00:50 AM 39.2460 -87.2290 316° Northwest 432 497 34,000  Level FlightAware ADS-B
Sat 05:01:32 AM 39.3070 -87.3040 316° Northwest 432 497 34,000  Level FlightAware ADS-B
Sat 05:02:09 AM 39.3590 -87.3690 316° Northwest 431 496 34,000  Level FlightAware ADS-B
Sat 05:02:53 AM 39.4230 -87.4470 317° Northwest 430 495 34,000  Level FlightAware ADS-B
Sat 05:03:39 AM 39.4900 -87.5310 316° Northwest 429 494 34,000  Level FlightAware ADS-B
Sat 05:04:21 AM 39.5500 -87.6060 316° Northwest 428 493 34,000  Level FlightAware ADS-B
Sat 05:04:59 AM 39.6030 -87.6720 316° Northwest 427 491 34,000  Level FlightAware ADS-B
Sat 05:05:39 AM 39.6610 -87.7440 316° Northwest 425 489 34,000  Level FlightAware ADS-B
Sat 05:06:29 AM 39.7320 -87.8340 316° Northwest 425 489 34,000  Level FlightAware ADS-B
Sat 05:07:07 AM 39.7850 -87.9010 316° Northwest 425 489 34,000  Level FlightAware ADS-B
Sat 05:07:51 AM 39.8450 -87.9770 316° Northwest 423 487 34,000  Level FlightAware ADS-B
Sat 05:08:33 AM 39.9050 -88.0530 316° Northwest 422 486 34,000  Level FlightAware ADS-B
Sat 05:09:15 AM 39.9660 -88.1290 316° Northwest 421 484 34,000  Level FlightAware ADS-B
Sat 05:09:54 AM 40.0210 -88.1990 316° Northwest 422 486 34,000  Level FlightAware ADS-B
Sat 05:10:35 AM 40.0760 -88.2700 315° West 422 486 34,000  Level FlightAware ADS-B
Sat 05:12:00 AM 40.1970 -88.4250 316° Northwest 426 490 34,000  Level FlightAware ADS-B
Sat 05:12:45 AM 40.2600 -88.5060 316° Northwest 427 491 34,000  Level FlightAware ADS-B
Sat 05:13:25 AM 40.3170 -88.5790 316° Northwest 429 494 34,000  Level FlightAware ADS-B
Sat 05:14:06 AM 40.3750 -88.6550 315° West 429 494 34,000  Level FlightAware ADS-B
Sat 05:14:49 AM 40.4360 -88.7330 316° Northwest 429 494 34,000  Level FlightAware ADS-B
Sat 05:15:35 AM 40.5010 -88.8180 315° West 429 494 34,000  Level FlightAware ADS-B
Sat 05:16:14 AM 40.5570 -88.8910 315° West 430 495 34,000  Level FlightAware ADS-B
Sat 05:16:59 AM 40.6200 -88.9730 315° West 431 496 34,000  Level FlightAware ADS-B
Sat 05:17:37 AM 40.6740 -89.0440 315° West 429 494 34,000  Level FlightAware ADS-B
Sat 05:18:19 AM 40.7330 -89.1210 315° West 432 497 34,000  Level FlightAware ADS-B
Sat 05:19:03 AM 40.7950 -89.2030 315° West 432 497 34,000  Level FlightAware ADS-B
Sat 05:19:43 AM 40.8530 -89.2790 315° West 432 497 34,000  Level FlightAware ADS-B
Sat 05:20:20 AM 40.9050 -89.3480 315° West 434 499 34,000  Level FlightAware ADS-B
Sat 05:21:07 AM 40.9710 -89.4350 315° West 433 498 34,000  Level FlightAware ADS-B
Sat 05:21:51 AM 41.0340 -89.5190 315° West 432 497 34,000  Level FlightAware ADS-B
Sat 05:22:33 AM 41.0930 -89.5980 315° West 432 497 34,000  Level FlightAware ADS-B
Sat 05:23:11 AM 41.1460 -89.6700 314° West 432 497 34,000  Level FlightAware ADS-B
Sat 05:23:57 AM 41.2110 -89.7570 315° West 431 496 34,000  Level FlightAware ADS-B
Sat 05:24:39 AM 41.2690 -89.8350 315° West 432 497 34,000  Level FlightAware ADS-B
Sat 05:25:31 AM 41.3440 -89.9360 315° West 433 498 34,000  Level FlightAware ADS-B
Sat 05:26:18 AM 41.4100 -90.0250 315° West 434 499 34,000  Level FlightAware ADS-B
Sat 05:26:57 AM 41.4630 -90.0980 314° West 434 499 34,000  Level FlightAware ADS-B
Sat 05:27:39 AM 41.5240 -90.1810 314° West 434 499 34,000  Level FlightAware ADS-B
Sat 05:28:23 AM 41.5860 -90.2640 315° West 435 501 34,000  Level FlightAware ADS-B
Sat 05:29:05 AM 41.6450 -90.3460 314° West 435 501 34,000  Level FlightAware ADS-B
Sat 05:29:45 AM 41.7010 -90.4230 314° West 434 499 34,000  Level FlightAware ADS-B
Sat 05:31:08 AM 41.8133 -90.5750 314° West 433 498 34,000  Level Chicago Center
Sat 05:32:08 AM 41.8972 -90.6958 313° West 449 517 34,000  Level Chicago Center
Sat 05:33:09 AM 41.9822 -90.8128 314° West 444 511 34,000  Level Chicago Center
Sat 05:34:09 AM 42.0683 -90.9314 314° West 445 512 34,000  Level Chicago Center
Sat 05:35:09 AM 42.1531 -91.0536 313° West 449 517 34,000  Level Chicago Center
Sat 05:36:10 AM 42.2386 -91.1736 314° West 448 516 34,000  Level Chicago Center
Sat 05:37:10 AM 42.3244 -91.2931 314° West 447 514 34,000  Level Chicago Center
Sat 05:38:11 AM 42.4097 -91.4150 313° West 448 516 34,000  Level Chicago Center
Sat 05:43:23 AM 42.8670 -92.0720 313° West 443 510 34,000  Level FlightAware ADS-B
Sat 05:44:00 AM 42.9180 -92.1460 313° West 442 509 34,000  Level FlightAware ADS-B
Sat 05:44:47 AM 42.9830 -92.2420 313° West 442 509 34,000  Level FlightAware ADS-B
Sat 05:45:25 AM 43.0360 -92.3200 313° West 440 506 34,000  Level FlightAware ADS-B
Sat 05:46:05 AM 43.0910 -92.4000 313° West 440 506 34,000  Level FlightAware ADS-B
Sat 05:46:54 AM 43.1610 -92.5040 313° West 440 506 34,000  Level FlightAware ADS-B
Sat 05:47:34 AM 43.2170 -92.5870 313° West 441 507 34,000  Level FlightAware ADS-B
Sat 05:48:18 AM 43.2770 -92.6760 313° West 441 507 34,000  Level FlightAware ADS-B
Sat 05:48:58 AM 43.3330 -92.7590 313° West 441 507 34,000  Level FlightAware ADS-B
Sat 05:49:30 AM 43.3780 -92.8260 313° West 441 507 34,000  Level FlightAware ADS-B
Sat 05:50:06 AM 43.4270 -92.8990 313° West 441 507 34,000  Level FlightAware ADS-B
Sat 05:51:14 AM 43.5220 -93.0420 313° West 443 510 34,000  Level FlightAware ADS-B
Sat 05:52:09 AM 43.5970 -93.1560 312° West 443 510 34,000  Level FlightAware ADS-B
Sat 05:54:46 AM 43.8120 -93.4830 312° West 446 513 34,000  Level FlightAware ADS-B
Sat 05:55:17 AM 43.8519 -93.5456 312° West 449 517 34,000  Level Minneapolis Center
Sat 06:00:28 AM 44.2430 -94.1600 312° West 446 513 34,000  Level FlightAware ADS-B
Sat 06:01:05 AM 44.2850 -94.2280 311° West 446 513 34,000  Level FlightAware ADS-B
Sat 06:01:54 AM 44.3420 -94.3190 311° West 446 513 34,000  Level FlightAware ADS-B
Sat 06:02:30 AM 44.3830 -94.3860 311° West 446 513 34,000  Level FlightAware ADS-B
Sat 06:03:31 AM 44.4530 -94.4990 311° West 446 513 34,000  Level FlightAware ADS-B
Sat 06:04:26 AM 44.6060 -94.7250 314° West 441 507 34,000  Level FlightAware ADS-B
Sat 06:05:03 AM 44.6480 -94.7930 311° West 441 507 34,000  Level FlightAware ADS-B
Sat 06:06:39 AM 44.7570 -94.9700 311° West 441 507 34,000  Level FlightAware ADS-B
Sat 06:07:25 AM 44.8090 -95.0540 311° West 441 507 34,000  Level FlightAware ADS-B
Sat 06:08:02 AM 44.8510 -95.1230 311° West 441 507 34,000  Level FlightAware ADS-B
Sat 06:08:50 AM 44.9060 -95.2110 311° West 441 507 34,000  Level FlightAware ADS-B
Sat 06:09:26 AM 44.9470 -95.2780 311° West 441 507 34,000  Level FlightAware ADS-B
Sat 06:10:39 AM 45.0300 -95.4130 311° West 441 507 34,000  Level FlightAware ADS-B
Sat 06:11:55 AM 45.1160 -95.5540 311° West 441 507 34,000  Level FlightAware ADS-B
Sat 06:12:31 AM 45.1570 -95.6210 311° West 441 507 34,000  Level FlightAware ADS-B
Sat 06:13:19 AM 45.2120 -95.7100 311° West 441 507 34,000  Level FlightAware ADS-B
Sat 06:13:55 AM 45.2530 -95.7770 311° West 441 507 34,000  Level FlightAware ADS-B
Sat 06:15:24 AM 45.4714 -96.1453 311° West 432 497 34,000  Level Minneapolis Center
Sat 06:16:25 AM 45.5494 -96.2747 311° West 431 496 34,000  Level Minneapolis Center
Sat 06:17:25 AM 45.6256 -96.4047 310° West 430 495 34,000  Level Minneapolis Center
Sat 06:18:26 AM 45.7022 -96.5339 310° West 429 494 34,000  Level Minneapolis Center
Sat 06:19:26 AM 45.7781 -96.6639 310° West 427 491 34,000  Level Minneapolis Center
Sat 06:20:26 AM 45.8539 -96.7961 309° West 430 495 34,000  Level Minneapolis Center
Sat 06:26:26 AM 46.3190 -97.6090 309° West 428 493 34,000  Level FlightAware ADS-B
Sat 06:27:03 AM 46.3570 -97.6800 308° West 428 493 34,000  Level FlightAware ADS-B
Sat 06:27:48 AM 46.4210 -97.7890 310° West 425 489 34,000  Level FlightAware ADS-B
Sat 06:28:34 AM 46.4790 -97.8940 309° West 423 487 34,000  Level FlightAware ADS-B
Sat 06:29:32 AM 46.5420 -98.0080 309° West 421 484 34,000  Level FlightAware ADS-B
Sat 06:31:14 AM 46.6750 -98.2470 309° West 416 479 34,000  Level FlightAware ADS-B
Sat 06:37:21 AM 47.0950 -99.0200 309° West 396 456 34,000  Level FlightAware ADS-B
Sat 06:38:10 AM 47.1420 -99.1080 308° West 396 456 34,000  Level FlightAware ADS-B
Sat 06:38:46 AM 47.1760 -99.1730 308° West 396 456 34,000  Level FlightAware ADS-B
Sat 06:39:46 AM 47.2340 -99.2820 308° West 396 456 34,000  Level FlightAware ADS-B
Sat 06:42:42 AM 47.4620 -99.7140 308° West 391 450 34,000  Level FlightAware ADS-B
Sat 06:43:27 AM 47.5040 -99.7960 307° West 391 450 34,000  Level FlightAware ADS-B
Sat 06:44:06 AM 47.5400 -99.8670 307° West 391 450 34,000  Level FlightAware ADS-B
Sat 06:44:55 AM 47.5850 -99.9560 307° West 391 450 34,000  Level FlightAware ADS-B
Sat 06:45:44 AM 47.6310 -100.0450 308° West 391 450 34,000  Level FlightAware ADS-B
Sat 06:46:59 AM 47.7440 -100.2600 308° West 390 449 34,000  Level FlightAware ADS-B
Sat 06:47:40 AM 47.7810 -100.3340 307° West 390 449 34,000  Level FlightAware ADS-B
Sat 06:48:21 AM 47.8340 -100.4360 308° West 391 450 34,000  Level FlightAware ADS-B
Sat 06:49:03 AM 47.8800 -100.5260 307° West 391 450 34,000  Level FlightAware ADS-B
Sat 06:49:47 AM 47.9280 -100.6210 307° West 393 452 34,000  Level FlightAware ADS-B
Sat 06:50:23 AM 47.9660 -100.6970 307° West 393 452 34,000  Level FlightAware ADS-B
Sat 06:51:12 AM 48.0110 -100.7880 306° West 393 452 34,000  Level FlightAware ADS-B
Sat 06:51:50 AM 48.0450 -100.8590 306° West 393 452 34,000  Level FlightAware ADS-B
Sat 06:52:39 AM 48.0900 -100.9510 306° West 393 452 34,000  Level FlightAware ADS-B
Sat 06:53:16 AM 48.1230 -101.0200 306° West 393 452 34,000  Level FlightAware ADS-B
Sat 06:54:02 AM 48.1650 -101.1070 306° West 393 452 34,000  Level FlightAware ADS-B
Sat 06:54:37 AM 48.1970 -101.1720 306° West 393 452 34,000  Level FlightAware ADS-B
Sat 06:55:50 AM 48.2630 -101.3090 306° West 393 452 34,000  Level FlightAware ADS-B
Sat 06:56:50 AM 48.3180 -101.4220 306° West 393 452 34,000  Level FlightAware ADS-B
Sat 06:57:26 AM 48.3500 -101.4900 305° West 393 452 34,000  Level FlightAware ADS-B
Sat 06:58:15 AM 48.3950 -101.5820 306° West 393 452 34,000  Level FlightAware ADS-B
Sat 06:58:52 AM 48.4290 -101.6520 306° West 393 452 34,000  Level FlightAware ADS-B
Sat 06:59:51 AM 48.4820 -101.7630 306° West 393 452 34,000  Level FlightAware ADS-B
Sat 07:00:44 AM 48.7014 -101.9125 306° West 389 448 34,000  Level Minneapolis Center
Sat 07:01:45 AM 48.7797 -102.0250 317° Northwest 390 449 34,000  Level Minneapolis Center
Sat 07:07:34 AM 49.2540 -102.7110 317° Northwest 394 453 34,000  Level FlightAware ADS-B
Sat 07:08:16 AM 49.3100 -102.7950 316° Northwest 396 456 34,000  Level FlightAware ADS-B
Sat 07:08:59 AM 49.3570 -102.8660 315° West 396 456 34,000  Level FlightAware ADS-B
Sat 07:09:38 AM 49.3990 -102.9320 314° West 396 456 34,000  Level FlightAware ADS-B
Sat 07:11:01 AM 49.5220 -103.1110 317° Northwest 397 457 34,000  Level FlightAware ADS-B
Sat 07:12:13 AM 49.6010 -103.2330 315° West 397 457 34,000  Level FlightAware ADS-B
Sat 07:12:49 AM 49.6410 -103.2950 315° West 397 457 34,000  Level FlightAware ADS-B
Sat 07:13:35 AM 49.6910 -103.3730 315° West 397 457 34,000  Level FlightAware ADS-B
Sat 07:14:22 AM 49.7430 -103.4530 315° West 397 457 34,000  Level FlightAware ADS-B
Sat 07:14:58 AM 49.7830 -103.5150 315° West 397 457 34,000  Level FlightAware ADS-B
Sat 07:15:49 AM 49.9050 -103.6920 317° Northwest 403 464 34,000  Level FlightAware ADS-B
Sat 07:16:38 AM 49.9680 -103.7890 315° West 403 464 34,000  Level FlightAware ADS-B
Sat 07:17:15 AM 50.0160 -103.8620 316° Northwest 404 465 34,000  Level FlightAware ADS-B
Sat 07:17:59 AM 50.0740 -103.9530 315° West 405 466 34,000  Level FlightAware ADS-B
Sat 07:18:44 AM 50.1360 -104.0490 315° West 405 466 34,000  Level FlightAware ADS-B
Sat 07:19:20 AM 50.1810 -104.1180 316° Northwest 405 466 34,000  Level FlightAware ADS-B
Sat 07:20:15 AM 50.2550 -104.2350 315° West 405 466 34,000  Level FlightAware ADS-B
Sat 07:21:00 AM 50.3180 -104.3340 315° West 406 467 34,000  Level FlightAware ADS-B
Sat 07:21:44 AM 50.3730 -104.4200 315° West 407 468 34,000  Level FlightAware ADS-B
Sat 07:22:25 AM 50.4270 -104.5060 315° West 406 467 34,000  Level FlightAware ADS-B
Sat 07:23:18 AM 50.4960 -104.6160 315° West 408 470 34,000  Level FlightAware ADS-B
Sat 07:24:02 AM 50.5570 -104.7130 315° West 407 468 34,000  Level FlightAware ADS-B
Sat 07:24:51 AM 50.6190 -104.8130 314° West 408 470 34,000  Level FlightAware ADS-B
Sat 07:25:52 AM 50.6940 -104.9520 310° West 409 471 34,000  Level FlightAware ADS-B
Sat 07:26:36 AM 50.7400 -105.0560 305° West 412 474 34,000  Level FlightAware ADS-B
Sat 07:27:23 AM 50.7960 -105.1870 304° West 412 474 34,000  Level FlightAware ADS-B
Sat 07:27:59 AM 50.8320 -105.2710 304° West 413 475 34,000  Level FlightAware ADS-B
Sat 07:28:45 AM 50.8790 -105.3810 304° West 414 476 34,000  Level FlightAware ADS-B
Sat 07:29:25 AM 50.9220 -105.4800 305° West 412 474 34,000  Level FlightAware ADS-B
Sat 07:29:54 AM 50.9530 -105.5550 303° West 413 475 34,000  Level FlightAware ADS-B
Sat 07:30:58 AM 51.0000 -105.7167 303° West 410 472 34,000  Level Edmonton Center
Sat 07:31:58 AM 51.0667 -105.8833 303° West 410 472 34,000  Level Edmonton Center
Sat 07:32:58 AM 51.1167 -106.0167 301° West 410 472 34,000  Level Edmonton Center
Sat 07:33:58 AM 51.1833 -106.1833 303° West 410 472 34,000  Level Edmonton Center
Sat 07:39:52 AM 51.4490 -106.7490 303° West 416 479 34,000  Level FlightAware ADS-B
Sat 07:40:53 AM 51.5010 -106.8750 304° West 417 480 34,000  Level FlightAware ADS-B
Sat 07:41:30 AM 51.5340 -106.9570 303° West 417 480 34,000  Level FlightAware ADS-B
Sat 07:42:19 AM 51.5770 -107.0650 303° West 417 480 34,000  Level FlightAware ADS-B
Sat 07:42:56 AM 51.6100 -107.1470 303° West 417 480 34,000  Level FlightAware ADS-B
Sat 07:43:50 AM 51.6740 -107.3100 302° West 416 479 34,000  Level FlightAware ADS-B
Sat 07:44:39 AM 51.7170 -107.4190 303° West 416 479 34,000  Level FlightAware ADS-B
Sat 07:45:58 AM 51.9333 -108.0667 303° West 410 472 34,000  Level Edmonton Center
Sat 07:46:58 AM 52.0000 -108.2333 303° West 410 472 34,000  Level Edmonton Center
Sat 07:52:49 AM 52.1410 -108.5220 303° West 416 479 34,000  Level FlightAware ADS-B
Sat 07:53:58 AM 52.4167 -109.3500 303° West 420 483 34,000  Level Edmonton Center
Sat 07:59:22 AM 52.7690 -110.2260 303° West 424 488 34,000  Level FlightAware ADS-B
Sat 08:01:53 AM 52.9250 -110.6710 300° West 426 490 34,000  Level FlightAware ADS-B
Sat 08:02:33 AM 52.9640 -110.7830 300° West 427 491 34,000  Level FlightAware ADS-B
Sat 08:03:18 AM 53.0140 -110.9070 304° West 428 493 34,000  Level FlightAware ADS-B
Sat 08:03:58 AM 53.0630 -111.0200 306° West 428 493 34,000  Level FlightAware ADS-B
Sat 08:04:38 AM 53.1070 -111.1210 306° West 429 494 34,000  Level FlightAware ADS-B
Sat 08:05:18 AM 53.1530 -111.2260 306° West 429 494 34,000  Level FlightAware ADS-B
Sat 08:06:14 AM 53.2200 -111.3830 306° West 431 496 34,000  Level FlightAware ADS-B
Sat 08:06:59 AM 53.2720 -111.5050 306° West 430 495 34,000  Level FlightAware ADS-B
Sat 08:07:41 AM 53.3210 -111.6180 306° West 431 496 34,000  Level FlightAware ADS-B
Sat 08:08:20 AM 53.3650 -111.7240 305° West 431 496 34,000  Level FlightAware ADS-B
Sat 08:08:55 AM 53.4080 -111.8230 306° West 431 496 34,000  Level FlightAware ADS-B
Sat 08:09:30 AM 53.4470 -111.9180 305° West 431 496 34,000  Level FlightAware ADS-B
Sat 08:10:20 AM 53.5050 -112.0540 306° West 430 495 34,000  Level FlightAware ADS-B
Sat 08:11:58 AM 53.6020 -112.2880 305° West 431 496 34,000  Level FlightAware ADS-B
Sat 08:12:31 AM 53.6530 -112.4120 305° West 431 496 34,000  Level FlightAware ADS-B
Sat 08:13:10 AM 53.6980 -112.5220 305° West 432 497 34,000  Level FlightAware ADS-B
Sat 08:13:50 AM 53.7440 -112.6350 305° West 433 498 34,000  Level FlightAware ADS-B
Sat 08:14:20 AM 53.7760 -112.7130 305° West 433 498 34,000  Level FlightAware ADS-B
Sat 08:14:55 AM 53.8170 -112.8130 305° West 435 501 34,000  Level FlightAware ADS-B
Sat 08:15:58 AM 53.8667 -113.0167 305° West 430 495 34,000  Level Edmonton Center
Sat 08:16:58 AM 53.9333 -113.1667 307° West 430 495 34,000  Level Edmonton Center
Sat 08:17:58 AM 54.0000 -113.3500 302° West 430 495 34,000  Level Edmonton Center
Sat 08:23:21 AM 54.3740 -114.2260 302° West 442 509 34,000  Level FlightAware ADS-B
Sat 08:24:01 AM 54.4330 -114.3790 304° West 443 510 34,000  Level FlightAware ADS-B
Sat 08:24:41 AM 54.4790 -114.5020 303° West 443 510 34,000  Level FlightAware ADS-B
Sat 08:25:21 AM 54.5200 -114.6100 303° West 444 511 34,000  Level FlightAware ADS-B
Sat 08:27:06 AM 54.6420 -114.9340 303° West 445 512 34,000  Level FlightAware ADS-B
Sat 08:27:41 AM 54.6810 -115.0380 303° West 445 512 34,000  Level FlightAware ADS-B
Sat 08:28:31 AM 54.7360 -115.1880 302° West 446 513 34,000  Level FlightAware ADS-B
Sat 08:29:06 AM 54.7710 -115.2840 302° West 447 514 34,000  Level FlightAware ADS-B
Sat 08:29:52 AM 54.8240 -115.4270 303° West 446 513 34,000  Level FlightAware ADS-B
Sat 08:34:50 AM 55.1340 -116.2910 302° West 449 517 34,000  Level FlightAware ADS-B
Sat 08:35:36 AM 55.2030 -116.4890 301° West 449 517 34,000  Level FlightAware ADS-B
Sat 08:36:22 AM 55.2440 -116.6080 301° West 449 517 34,000  Level FlightAware ADS-B
Sat 08:36:58 AM 55.2770 -116.7030 301° West 449 517 34,000  Level FlightAware ADS-B
Sat 08:37:41 AM 55.3360 -116.8730 301° West 34,000  Level FlightAware ADS-B
Sat 08:38:58 AM 55.3833 -117.1500 301° West 450 518 34,000  Level Edmonton Center
Sat 08:39:58 AM 55.4500 -117.3500 301° West 450 518 34,000  Level Edmonton Center
Sat 08:40:58 AM 55.5167 -117.5333 303° West 450 518 34,000  Level Edmonton Center
Sat 08:41:58 AM 55.5833 -117.7333 301° West 450 518 34,000  Level Edmonton Center
Sat 08:42:58 AM 55.6500 -117.9167 303° West 450 518 34,000  Level Edmonton Center
Sat 08:43:58 AM 55.7167 -118.1167 301° West 450 518 34,000  Level Edmonton Center
Sat 08:44:58 AM 55.7833 -118.2833 305° West 450 518 34,000  Level Edmonton Center
Sat 08:45:58 AM 55.8500 -118.5000 299° West 440 506 34,000  Level Edmonton Center
Sat 08:46:58 AM 55.8833 -118.7000 287° West 440 506 34,000  Level Edmonton Center
Sat 08:47:58 AM 55.9667 -118.8833 309° West 450 518 34,000  Level Edmonton Center
Sat 08:48:58 AM 56.0167 -119.0833 294° West 450 518 34,000  Level Edmonton Center
Sat 08:49:58 AM 56.0833 -119.2667 303° West 450 518 34,000  Level Edmonton Center
Sat 08:50:58 AM 56.1333 -119.4667 294° West 460 529 34,000  Level Edmonton Center
Sat 08:51:58 AM 56.2167 -119.6833 305° West 460 529 34,000  Level Edmonton Center
Sat 08:52:58 AM 56.2667 -119.9000 293° West 460 529 34,000  Level Edmonton Center
Sat 08:53:58 AM 56.3333 -120.0833 303° West 470 541 34,000  Level Edmonton Center
Sat 08:54:58 AM 56.4000 -120.3000 299° West 470 541 34,000  Level Edmonton Center
Sat 08:55:58 AM 56.4667 -120.5000 301° West 470 541 34,000  Level Edmonton Center
Sat 08:56:58 AM 56.5167 -120.7167 293° West 470 541 34,000  Level Edmonton Center
Sat 08:57:58 AM 56.5833 -120.9333 299° West 470 541 34,000  Level Edmonton Center
Sat 08:58:58 AM 56.6333 -121.1500 293° West 470 541 34,000  Level Edmonton Center
Sat 08:59:58 AM 56.7000 -121.3333 304° West 470 541 34,000  Level Edmonton Center
Sat 09:00:58 AM 56.7667 -121.5833 296° West 470 541 34,000  Level Edmonton Center
Sat 09:01:58 AM 56.8333 -121.7833 301° West 460 529 34,000  Level Edmonton Center
Sat 09:02:58 AM 56.8833 -122.0000 293° West 460 529 34,000  Level Edmonton Center
Sat 09:03:58 AM 56.9333 -122.2167 293° West 460 529 34,000  Level Edmonton Center
Sat 09:04:58 AM 57.0000 -122.4333 300° West 460 529 34,000  Level Edmonton Center
Sat 09:05:58 AM 57.0500 -122.6167 297° West 460 529 34,000  Level Edmonton Center
Sat 09:06:58 AM 57.1167 -122.8333 300° West 460 529 34,000  Level Edmonton Center
Sat 09:07:58 AM 57.1667 -123.0667 292° West 460 529 34,000  Level Edmonton Center
Sat 09:08:58 AM 57.2167 -123.2833 293° West 460 529 34,000  Level Edmonton Center
Sat 09:09:58 AM 57.2833 -123.5167 298° West 470 541 34,000  Level Edmonton Center
Sat 09:10:58 AM 57.3500 -123.7333 300° West 470 541 34,000  Level Edmonton Center
Sat 09:11:58 AM 57.4000 -123.9667 292° West 480 552 34,000  Level Edmonton Center
Sat 09:12:58 AM 57.4500 -124.1500 297° West 470 541 34,000  Level Edmonton Center
Sat 09:13:58 AM 57.5167 -124.4167 295° West 480 552 34,000  Level Edmonton Center
Sat 09:14:58 AM 57.5667 -124.6167 295° West 480 552 34,000  Level Edmonton Center
Sat 09:15:58 AM 57.6167 -124.8667 291° West 480 552 34,000  Level Edmonton Center
Sat 09:16:58 AM 57.6667 -125.0667 295° West 480 552 34,000  Level Edmonton Center
Sat 09:18:00 AM 57.7176 -125.2792 294° West  Level FlightAware Approximate
Sat 09:25:00 AM 58.0545 -126.7331 294° West  Level FlightAware Approximate
Sat 09:26:00 AM 58.1019 -126.9426 293° West  Level FlightAware Approximate
Sat 09:27:00 AM 58.1489 -127.1526 293° West  Level FlightAware Approximate
Sat 09:28:00 AM 58.1956 -127.3632 293° West  Level FlightAware Approximate
Sat 09:29:00 AM 58.2419 -127.5743 293° West  Level FlightAware Approximate
Sat 09:30:00 AM 58.2879 -127.7859 293° West  Level FlightAware Approximate
Sat 09:31:00 AM 58.3335 -127.9982 292° West  Level FlightAware Approximate
Sat 09:32:00 AM 58.3788 -128.2109 292° West  Level FlightAware Approximate
Sat 09:33:00 AM 58.4237 -128.4242 292° West  Level FlightAware Approximate
Sat 09:34:00 AM 58.4683 -128.6381 292° West  Level FlightAware Approximate
Sat 09:35:00 AM 58.5125 -128.8524 292° West  Level FlightAware Approximate
Sat 09:36:00 AM 58.5563 -129.0674 291° West  Level FlightAware Approximate
Sat 09:37:00 AM 58.5998 -129.2828 291° West  Level FlightAware Approximate
Sat 09:38:00 AM 58.6430 -129.4988 291° West  Level FlightAware Approximate
Sat 09:39:00 AM 58.6857 -129.7154 291° West  Level FlightAware Approximate
Sat 09:40:00 AM 58.7295 -129.9322 291° West  Level FlightAware Approximate
Sat 09:41:00 AM 58.7730 -130.1495 291° West  Level FlightAware Approximate
Sat 09:42:00 AM 58.8161 -130.3674 291° West  Level FlightAware Approximate
Sat 09:43:00 AM 58.8588 -130.5858 291° West  Level FlightAware Approximate
Sat 09:44:00 AM 58.9012 -130.8048 291° West  Level FlightAware Approximate
Sat 09:45:00 AM 58.9431 -131.0242 290° West  Level FlightAware Approximate
Sat 09:46:00 AM 58.9847 -131.2443 290° West  Level FlightAware Approximate
Sat 09:47:00 AM 59.0260 -131.4648 290° West  Level FlightAware Approximate
Sat 09:48:00 AM 59.0668 -131.6859 290° West  Level FlightAware Approximate
Sat 09:49:00 AM 59.1073 -131.9075 290° West  Level FlightAware Approximate
Sat 09:50:00 AM 59.1474 -132.1297 289° West  Level FlightAware Approximate
Sat 09:51:00 AM 59.1871 -132.3523 289° West  Level FlightAware Approximate
Sat 09:52:00 AM 59.2265 -132.5755 289° West  Level FlightAware Approximate
Sat 09:53:00 AM 59.2654 -132.7991 289° West  Level FlightAware Approximate
Sat 09:54:00 AM 59.3036 -133.0233 287° West  Level FlightAware Approximate
Sat 09:54:35 AM 59.5167 -134.4167 287° West 530 610 34,000  Level Anchorage Center
Sat 09:55:00 AM 59.3387 -133.2500 287° West  Level FlightAware Approximate
Sat 09:55:35 AM 59.5667 -134.6833 290° West 510 587 34,000  Level Anchorage Center
Sat 09:56:00 AM 59.3744 -133.4757 287° West  Level FlightAware Approximate
Sat 09:56:35 AM 59.6000 -134.9333 285° West 510 587 34,000  Level Anchorage Center
Sat 09:57:00 AM 59.4096 -133.7019 287° West  Level FlightAware Approximate
Sat 09:57:36 AM 59.6333 -135.2000 284° West 520 598 34,000  Level Anchorage Center
Sat 09:58:00 AM 59.4445 -133.9285 287° West  Level FlightAware Approximate
Sat 09:58:36 AM 59.6667 -135.4833 283° West 520 598 34,000  Level Anchorage Center
Sat 09:59:00 AM 59.4790 -134.1557 287° West  Level FlightAware Approximate
Sat 09:59:36 AM 59.7167 -135.7500 290° West 520 598 34,000  Level Anchorage Center
Sat 10:00:37 AM 59.7500 -136.0333 283° West 520 598 34,000  Level Anchorage Center
Sat 10:01:37 AM 59.7833 -136.3667 281° West 520 598 34,000  Level Anchorage Center
Sat 10:02:37 AM 59.8167 -136.6333 284° West 520 598 34,000  Level Anchorage Center
Sat 10:03:38 AM 59.8500 -136.9167 283° West 510 587 34,000  Level Anchorage Center
Sat 10:04:38 AM 59.9000 -137.1833 291° West 510 587 34,000  Level Anchorage Center
Sat 10:05:38 AM 59.9333 -137.4667 283° West 510 587 34,000  Level Anchorage Center
Sat 10:06:39 AM 59.9500 -137.7333 277° West 510 587 34,000  Level Anchorage Center
Sat 10:07:39 AM 59.9833 -138.0167 283° West 510 587 34,000  Level Anchorage Center
Sat 10:08:40 AM 60.0167 -138.2833 284° West 510 587 34,000  Level Anchorage Center
Sat 10:09:40 AM 60.0500 -138.5667 283° West 500 575 34,000  Level Anchorage Center
Sat 10:10:40 AM 60.0833 -138.8333 284° West 510 587 34,000  Level Anchorage Center
Sat 10:11:41 AM 60.1167 -139.1167 283° West 500 575 34,000  Level Anchorage Center
Sat 10:12:41 AM 60.1500 -139.3833 284° West 500 575 34,000  Level Anchorage Center
Sat 10:13:41 AM 60.1667 -139.6500 277° West 500 575 34,000  Level Anchorage Center
Sat 10:14:42 AM 60.2000 -139.9333 283° West 500 575 34,000  Level Anchorage Center
Sat 10:15:42 AM 60.2333 -140.2000 284° West 490 564 34,000  Level Anchorage Center
Sat 10:16:42 AM 60.2500 -140.4667 277° West 490 564 34,000  Level Anchorage Center
Sat 10:17:43 AM 60.2833 -140.7333 284° West 490 564 34,000  Level Anchorage Center
Sat 10:18:43 AM 60.3000 -141.0000 277° West 480 552 34,000  Level Anchorage Center
Sat 10:19:43 AM 60.3333 -141.2667 284° West 490 564 34,000  Level Anchorage Center
Sat 10:20:44 AM 60.3500 -141.5500 277° West 490 564 34,000  Level Anchorage Center
Sat 10:21:44 AM 60.3833 -141.8167 284° West 490 564 34,000  Level Anchorage Center
Sat 10:22:45 AM 60.4000 -142.1000 277° West 500 575 34,000  Level Anchorage Center
Sat 10:23:45 AM 60.4167 -142.3833 277° West 500 575 34,000  Level Anchorage Center
Sat 10:24:45 AM 60.4333 -142.6667 277° West 510 587 34,000  Level Anchorage Center
Sat 10:25:46 AM 60.4667 -142.9333 284° West 500 575 34,000  Level Anchorage Center
Sat 10:26:46 AM 60.4833 -143.2500 276° West 510 587 34,000  Level Anchorage Center
Sat 10:27:46 AM 60.5000 -143.5333 277° West 510 587 34,000  Level Anchorage Center
Sat 10:28:47 AM 60.5333 -143.8167 284° West 510 587 34,000  Level Anchorage Center
Sat 10:29:47 AM 60.5500 -144.1000 277° West 500 575 34,000  Level Anchorage Center
Sat 10:30:47 AM 60.5667 -144.3833 277° West 510 587 34,000  Level Anchorage Center
Sat 10:31:48 AM 60.5833 -144.6667 277° West 510 587 34,000  Level Anchorage Center
Sat 10:32:48 AM 60.6000 -144.9500 277° West 510 587 34,000  Level Anchorage Center
Sat 10:33:48 AM 60.6167 -145.2333 277° West 480 552 34,000  Level Anchorage Center
Sat 10:34:48 AM 60.6333 -145.5167 277° West 490 564 34,000  Level Anchorage Center
Sat 10:40:42 AM 60.7090 -147.1790 277° West 485 558 34,000  Level FlightAware ADS-B
Sat 10:41:31 AM 60.7160 -147.4060 274° West 484 557 34,000 -202 Level FlightAware ADS-B
Sat 10:42:11 AM 60.7210 -147.5860 273° West 476 548 33,700 -1,500 Descending FlightAware ADS-B
Sat 10:42:51 AM 60.7260 -147.7650 273° West 475 547 32,000 -3,214 Descending FlightAware ADS-B
Sat 10:43:35 AM 60.7310 -147.9680 273° West 494 568 29,200 -4,047 Descending FlightAware ADS-B
Sat 10:44:17 AM 60.7380 -148.1650 274° West 510 587 26,200 -3,726 Descending FlightAware ADS-B
Sat 10:45:10 AM 60.7670 -148.4110 284° West 500 575 23,300 -3,263 Descending FlightAware ADS-B
Sat 10:46:11 AM 60.8060 -148.6750 287° West 455 524 20,000 -3,515 Descending FlightAware ADS-B
Sat 10:46:49 AM 60.8280 -148.8250 287° West 437 503 17,500 -4,125 Descending FlightAware ADS-B
Sat 10:47:15 AM 60.8430 -148.9280 287° West 430 495 15,600 -3,000 Descending FlightAware ADS-B
Sat 10:48:01 AM 60.8690 -149.1070 287° West 413 475 13,900 -2,283 Descending FlightAware ADS-B
Sat 10:48:47 AM 60.8970 -149.2720 289° West 405 466 12,100 -2,114 Descending FlightAware ADS-B
Sat 10:49:29 AM 60.9280 -149.4230 293° West 387 445 10,800 -1,100 Descending FlightAware ADS-B
Sat 10:50:47 AM 60.9750 -149.6640 292° West 324 373 9,900 -545 Descending FlightAware ADS-B
Sat 10:51:19 AM 60.9930 -149.7540 292° West 293 337 9,800 -600 Descending FlightAware ADS-B
Sat 10:51:47 AM 61.0070 -149.8240 292° West 275 316 9,300 -1,500 Descending FlightAware ADS-B
Sat 10:52:03 AM 61.0140 -149.8600 292° West 275 316 8,700 -2,429 Descending FlightAware ADS-B
Sat 10:52:29 AM 61.0270 -149.9250 292° West 273 314 7,600 -2,333 Descending FlightAware ADS-B
Sat 10:52:57 AM 61.0400 -149.9890 293° West 269 310 6,600 -1,962 Descending FlightAware ADS-B
Sat 10:53:21 AM 61.0510 -150.0460 292° West 257 296 5,900 -1,440 Descending FlightAware ADS-B
Sat 10:53:47 AM 61.0620 -150.1040 291° West 234 269 5,400 -1,263 Descending FlightAware ADS-B
Sat 10:54:18 AM 61.0740 -150.1660 292° West 229 264 4,700 -1,452 Descending FlightAware ADS-B
Sat 10:54:49 AM 61.0870 -150.2320 292° West 230 265 3,900 -1,152 Descending FlightAware ADS-B
Sat 10:56:23 AM 61.1440 -150.3330 319° Northwest 202 232 2,300 -1,071 Descending FlightAware ADS-B
Sat 10:56:41 AM 61.1530 -150.3020 59° Northeast 203 234 1,900 -652 Descending FlightAware ADS-B
Sat 10:57:09 AM 61.1640 -150.2560 64° Northeast 184 212 1,800 -150 Descending FlightAware ADS-B
Sat 10:57:21 AM 61.1670 -150.2350 73° East 184 212 1,800 -615 Level FlightAware ADS-B
Sat 10:57:48 AM 61.1670 -150.1920 90° East 161 185 1,400 -750 Descending FlightAware ADS-B
Sat 10:58:01 AM 61.1680 -150.1790 81° East 153 176 1,300 -766 Descending FlightAware ADS-B
Sat 10:58:35 AM 61.1670 -150.1260 92° East 144 166 800 -857 Descending FlightAware ADS-B
Sat 10:58:57 AM 61.1680 -150.0940 86° East 145 167 500 -714 Descending FlightAware ADS-B
Sat 10:59:17 AM 61.1680 -150.0670 90° East 142 163 300 -600 Descending FlightAware ADS-B
Sat 11:00:10 AM 61.1680 -150.0070 90° East 63 72 -340 Descending FlightAware ADS-B
Sat 11:01:04 AM 61.1690 -149.9940 81° East 15 17  Level FlightAware ADS-B
Sat 11:01:44 AM 61.1730 -149.9960 346° North 20 23  Level FlightAware ADS-B
Sat 11:02:27 AM 61.1770 -149.9980 346° North 27 31  Level FlightAware ADS-B
Sat 11:03:20 AM 61.1680 -150.0180 227° Southwest 28 32  Level FlightAware ADS-B
Sat 11:03:55 AM 61.1890 -150.0050 17° North 28 32  Level FlightAware ADS-B
Sat 11:04:18 AM 61.1910 -150.0060 346° North 31 36  Level FlightAware ADS-B
Sat 11:04:38 AM 61.1680 -150.0180 194° South 12 14  Level FlightAware ADS-B
Sat 11:04:50 AM 61.1920 -150.0030 17° North 34 39  Level FlightAware ADS-B
Sat 11:05:44 AM 61.1940 -150.0030 360° North 2 2  Level FlightAware ADS-B
Sat 11:08:00 AM 61.1741 -149.9982 65° Northeast  Level Estimated
Sat 11:09:00 AM 61.1741 -149.9982 65° Northeast  Level Estimated
Sat 11:10:00 AM 61.1741 -149.9982 65° Northeast  Level Estimated
Sat 11:11:00 AM 61.1741 -149.9982 65° Northeast  Level Estimated
Sat 11:12:00 AM 61.1741 -149.9982 65° Northeast  Level Estimated
Sat 11:13:00 AM 61.1741 -149.9982 65° Northeast  Level Estimated
Sat 11:14:00 AM 61.1741 -149.9982 65° Northeast  Level Estimated

Login

Don't have an account? Register now (free) for customized features, flight alerts, and more!